createdAt,value
2018-12-19T00:00:55.782Z,98418.11
2018-12-19T00:03:24.391Z,98415.68
2018-12-19T00:05:52.906Z,98410.31
2018-12-19T00:08:21.466Z,98400.89
2018-12-19T00:10:50.049Z,98399.02
2018-12-19T00:13:20.394Z,98382.08
2018-12-19T00:15:48.880Z,98395.60
2018-12-19T00:18:17.427Z,98400.40
2018-12-19T00:20:45.987Z,98391.77
2018-12-19T00:23:14.494Z,98394.98
2018-12-19T00:25:43.062Z,98396.34
2018-12-19T00:28:11.558Z,98395.53
2018-12-19T00:30:40.106Z,98387.55
2018-12-19T00:33:08.566Z,98392.13
2018-12-19T00:35:37.165Z,98386.56
2018-12-19T00:38:05.802Z,98376.63
2018-12-19T00:40:34.326Z,98380.06
2018-12-19T00:43:02.818Z,98370.39
2018-12-19T00:45:31.305Z,98373.06
2018-12-19T00:47:59.869Z,98372.25
2018-12-19T00:50:28.386Z,98369.58
2018-12-19T00:52:57.349Z,98361.26
2018-12-19T00:55:25.950Z,98357.73
2018-12-19T00:57:54.422Z,98349.43
2018-12-19T01:00:22.930Z,98358.02
2018-12-19T01:02:52.114Z,98367.18
2018-12-19T01:05:20.590Z,98381.12
2018-12-19T01:07:49.126Z,98375.20
2018-12-19T01:10:17.699Z,98374.67
2018-12-19T01:12:46.146Z,98368.42
2018-12-19T01:15:14.617Z,98357.14
2018-12-19T01:17:43.119Z,98367.12
2018-12-19T01:20:12.322Z,98375.11
2018-12-19T01:22:40.903Z,98380.41
2018-12-19T01:25:09.386Z,98371.63
2018-12-19T01:27:37.897Z,98367.03
2018-12-19T01:30:06.832Z,98369.61
2018-12-19T01:32:35.381Z,98365.62
2018-12-19T01:35:05.526Z,98358.32
2018-12-19T01:37:35.437Z,98356.20
2018-12-19T01:40:04.687Z,98355.12
2018-12-19T01:42:33.214Z,98350.77
2018-12-19T01:45:01.790Z,98343.41
2018-12-19T01:47:30.351Z,98337.35
2018-12-19T01:49:58.906Z,98328.33
2018-12-19T01:52:27.473Z,98317.98
2018-12-19T01:54:55.937Z,98328.67
2018-12-19T01:57:24.398Z,98327.44
2018-12-19T01:59:52.922Z,98317.86
2018-12-19T02:02:21.378Z,98320.84
2018-12-19T02:04:49.870Z,98327.93
2018-12-19T02:07:18.389Z,98321.64
2018-12-19T02:09:46.972Z,98323.94
2018-12-19T02:12:16.085Z,98325.78
2018-12-19T02:14:47.683Z,98335.13
2018-12-19T02:17:16.133Z,98330.92
2018-12-19T02:19:44.630Z,98323.88
2018-12-19T02:22:13.213Z,98325.28
2018-12-19T02:24:41.701Z,98313.19
2018-12-19T02:27:10.163Z,98309.39
2018-12-19T02:29:38.626Z,98314.77
2018-12-19T02:32:09.210Z,98305.36
2018-12-19T02:34:37.902Z,98308.77
2018-12-19T02:37:06.495Z,98315.23
2018-12-19T02:39:36.365Z,98312.52
2018-12-19T02:42:05.136Z,98310.23
2018-12-19T02:44:33.630Z,98317.03
2018-12-19T02:47:02.175Z,98324.99
2018-12-19T02:49:30.793Z,98336.80
2018-12-19T02:51:59.507Z,98352.16
2018-12-19T02:54:28.053Z,98360.73
2018-12-19T02:56:56.615Z,98347.99
2018-12-19T02:59:25.197Z,98360.47
2018-12-19T03:01:53.912Z,98348.13
2018-12-19T03:04:22.367Z,98356.73
2018-12-19T03:06:50.962Z,98347.13
2018-12-19T03:09:19.479Z,98338.96
2018-12-19T03:11:48.086Z,98337.21
2018-12-19T03:14:16.540Z,98337.72
2018-12-19T03:16:45.047Z,98343.80
2018-12-19T03:19:13.707Z,98347.31
2018-12-19T03:21:42.183Z,98349.12
2018-12-19T03:24:10.635Z,98359.86
2018-12-19T03:26:39.110Z,98350.80
2018-12-19T03:29:07.569Z,98355.00
2018-12-19T03:31:36.052Z,98342.64
2018-12-19T03:34:04.618Z,98336.80
2018-12-19T03:36:33.120Z,98334.41
2018-12-19T03:39:01.589Z,98340.07
2018-12-19T03:41:30.285Z,98343.86
2018-12-19T03:43:58.713Z,98330.92
2018-12-19T03:46:27.274Z,98324.72
2018-12-19T03:48:56.535Z,98315.87
2018-12-19T03:51:25.971Z,98321.78
2018-12-19T03:53:54.494Z,98319.67
2018-12-19T03:56:23.001Z,98310.06
2018-12-19T03:58:51.495Z,98310.59
2018-12-19T04:01:20.031Z,98312.23
2018-12-19T04:03:48.510Z,98312.45
2018-12-19T04:06:17.020Z,98310.36
2018-12-19T04:08:45.466Z,98331.01
2018-12-19T04:11:13.955Z,98317.05
2018-12-19T04:13:42.421Z,98316.44
2018-12-19T04:16:10.888Z,98314.41
2018-12-19T04:18:39.361Z,98306.08
2018-12-19T04:21:07.982Z,98300.14
2018-12-19T04:23:36.446Z,98293.15
2018-12-19T04:26:04.974Z,98307.38
2018-12-19T04:28:33.470Z,98319.76
2018-12-19T04:31:01.927Z,98301.45
2018-12-19T04:33:30.451Z,98315.97
2018-12-19T04:35:59.063Z,98319.67
2018-12-19T04:38:28.012Z,98317.78
2018-12-19T04:40:56.495Z,98312.78
2018-12-19T04:43:24.998Z,98320.36
2018-12-19T04:45:53.537Z,98309.53
2018-12-19T04:48:22.089Z,98303.25
2018-12-19T04:50:50.552Z,98300.80
2018-12-19T04:53:19.008Z,98305.36
2018-12-19T04:55:47.549Z,98288.57
2018-12-19T04:58:16.013Z,98288.41
2018-12-19T05:00:45.051Z,98287.52
2018-12-19T05:03:13.613Z,98273.91
2018-12-19T05:05:42.123Z,98294.37
2018-12-19T05:08:10.773Z,98298.11
2018-12-19T05:10:39.290Z,98298.98
2018-12-19T05:13:07.772Z,98273.56
2018-12-19T05:15:36.280Z,98292.21
2018-12-19T05:18:04.726Z,98302.99
2018-12-19T05:20:33.235Z,98290.03
2018-12-19T05:23:01.680Z,98291.16
2018-12-19T05:25:30.146Z,98302.70
2018-12-19T05:27:58.675Z,98297.16
2018-12-19T05:30:27.172Z,98294.64
2018-12-19T05:32:55.769Z,98290.75
2018-12-19T05:35:24.378Z,98313.80
2018-12-19T05:37:52.936Z,98302.97
2018-12-19T05:40:21.401Z,98298.70
2018-12-19T05:42:50.338Z,98291.69
2018-12-19T05:45:18.818Z,98293.30
2018-12-19T05:47:47.378Z,98302.19
2018-12-19T05:50:16.659Z,98307.26
2018-12-19T05:52:45.647Z,98313.12
2018-12-19T05:55:16.113Z,98313.96
2018-12-19T05:57:45.929Z,98299.20
2018-12-19T06:00:16.460Z,98304.66
2018-12-19T06:02:46.523Z,98296.69
2018-12-19T06:05:16.259Z,98310.36
2018-12-19T06:07:47.186Z,98309.91
2018-12-19T06:10:16.788Z,98317.45
2018-12-19T06:12:46.430Z,98315.30
2018-12-19T06:15:15.334Z,98318.45
2018-12-19T06:17:44.286Z,98336.58
2018-12-19T06:20:13.018Z,98338.44
2018-12-19T06:22:41.660Z,98343.45
2018-12-19T06:25:11.917Z,98333.50
2018-12-19T06:27:40.780Z,98341.03
2018-12-19T06:30:09.649Z,98350.77
2018-12-19T06:32:38.692Z,98364.77
2018-12-19T06:35:07.957Z,98373.80
2018-12-19T06:37:36.484Z,98367.39
2018-12-19T06:40:06.318Z,98364.27
2018-12-19T06:42:34.960Z,98364.29
2018-12-19T06:45:03.759Z,98369.09
2018-12-19T06:47:33.249Z,98365.58
2018-12-19T06:50:02.947Z,98369.09
2018-12-19T06:52:31.502Z,98364.87
2018-12-19T06:55:00.151Z,98365.62
2018-12-19T06:57:28.678Z,98364.54
2018-12-19T06:59:57.256Z,98363.73
2018-12-19T07:02:25.822Z,98356.64
2018-12-19T07:04:54.290Z,98362.86
2018-12-19T07:07:22.750Z,98358.45
2018-12-19T07:09:51.289Z,98346.73
2018-12-19T07:12:19.740Z,98344.19
2018-12-19T07:14:48.703Z,98348.02
2018-12-19T07:17:17.271Z,98342.47
2018-12-19T07:19:45.794Z,98345.42
2018-12-19T07:22:14.324Z,98342.47
2018-12-19T07:24:42.831Z,98341.31
2018-12-19T07:27:11.425Z,98341.41
2018-12-19T07:29:40.112Z,98351.61
2018-12-19T07:32:08.574Z,98348.13
2018-12-19T07:34:37.040Z,98340.70
2018-12-19T07:37:05.546Z,98335.47
2018-12-19T07:39:34.057Z,98328.64
2018-12-19T07:42:02.514Z,98329.47
2018-12-19T07:44:31.368Z,98329.27
2018-12-19T07:46:59.891Z,98338.87
2018-12-19T07:49:28.369Z,98339.95
2018-12-19T07:51:56.852Z,98352.75
2018-12-19T07:54:25.449Z,98344.19
2018-12-19T07:56:53.987Z,98321.66
2018-12-19T07:59:22.729Z,98329.17
2018-12-19T08:01:51.218Z,98360.53
2018-12-19T08:04:20.077Z,98357.02
2018-12-19T08:06:48.521Z,98355.42
2018-12-19T08:09:16.979Z,98356.08
2018-12-19T08:11:45.429Z,98363.31
2018-12-19T08:14:13.955Z,98380.95
2018-12-19T08:16:42.494Z,98355.61
2018-12-19T08:19:11.054Z,98357.51
2018-12-19T08:21:39.722Z,98357.27
2018-12-19T08:24:08.257Z,98349.44
2018-12-19T08:26:36.812Z,98341.09
2018-12-19T08:29:05.285Z,98378.16
2018-12-19T08:31:33.874Z,98372.98
2018-12-19T08:34:02.741Z,98378.47
2018-12-19T08:36:31.191Z,98377.25
2018-12-19T08:39:00.333Z,98385.28
2018-12-19T08:41:29.122Z,98385.15
2018-12-19T08:43:57.709Z,98384.44
2018-12-19T08:46:26.362Z,98378.37
2018-12-19T08:48:55.067Z,98368.31
2018-12-19T08:51:23.518Z,98379.82
2018-12-19T08:53:52.756Z,98381.45
2018-12-19T08:56:21.378Z,98386.23
2018-12-19T08:58:49.849Z,98389.92
2018-12-19T09:01:18.315Z,98381.06
2018-12-19T09:03:46.832Z,98386.67
2018-12-19T09:06:15.382Z,98388.47
2018-12-19T09:08:43.984Z,98382.89
2018-12-19T09:11:13.425Z,98386.34
2018-12-19T09:13:42.990Z,98390.97
2018-12-19T09:16:12.193Z,98386.03
2018-12-19T09:18:40.672Z,98384.52
2018-12-19T09:21:09.253Z,98381.78
2018-12-19T09:23:37.815Z,98377.38
2018-12-19T09:26:06.341Z,98368.02
2018-12-19T09:28:34.982Z,98370.80
2018-12-19T09:31:04.563Z,98371.88
2018-12-19T09:33:33.128Z,98383.51
2018-12-19T09:36:02.232Z,98387.45
2018-12-19T09:38:31.423Z,98401.25
2018-12-19T09:41:01.010Z,98395.27
2018-12-19T09:43:29.491Z,98395.02
2018-12-19T09:45:58.080Z,98390.68
2018-12-19T09:48:26.570Z,98397.48
2018-12-19T09:50:56.093Z,98397.16
2018-12-19T09:53:24.978Z,98386.48
2018-12-19T09:55:53.497Z,98384.05
2018-12-19T09:58:24.676Z,98384.63
2018-12-19T10:00:53.167Z,98390.30
2018-12-19T10:03:21.623Z,98391.77
2018-12-19T10:05:50.087Z,98390.52
2018-12-19T10:08:18.695Z,98382.74
2018-12-19T10:10:47.877Z,98371.63
2018-12-19T10:13:16.922Z,98367.34
2018-12-19T10:15:45.521Z,98364.77
2018-12-19T10:18:15.926Z,98364.06
2018-12-19T10:20:46.679Z,98358.86
2018-12-19T10:23:16.942Z,98362.95
2018-12-19T10:25:47.497Z,98353.86
2018-12-19T10:28:21.377Z,98353.42
2018-12-19T10:30:49.873Z,98355.92
2018-12-19T10:33:18.548Z,98357.91
2018-12-19T10:35:47.042Z,98354.18
2018-12-19T10:38:16.392Z,98356.77
2018-12-19T10:40:45.680Z,98349.59
2018-12-19T10:43:14.379Z,98347.64
2018-12-19T10:45:43.468Z,98359.14
2018-12-19T10:48:11.942Z,98347.99
2018-12-19T10:50:40.406Z,98346.59
2018-12-19T10:53:08.916Z,98346.07
2018-12-19T10:55:37.451Z,98347.76
2018-12-19T10:58:06.033Z,98348.63
2018-12-19T11:00:39.882Z,98345.77
2018-12-19T11:03:08.538Z,98344.97
2018-12-19T11:05:37.086Z,98339.80
2018-12-19T11:08:05.596Z,98342.74
2018-12-19T11:10:34.077Z,98338.73
2018-12-19T11:13:02.727Z,98335.56
2018-12-19T11:15:31.357Z,98342.56
2018-12-19T11:18:00.519Z,98340.38
2018-12-19T11:20:29.025Z,98337.23
2018-12-19T11:22:57.589Z,98331.20
2018-12-19T11:25:26.176Z,98336.44
2018-12-19T11:27:55.351Z,98336.30
2018-12-19T11:30:25.042Z,98332.45
2018-12-19T11:32:53.578Z,98327.23
2018-12-19T11:35:22.175Z,98320.95
2018-12-19T11:37:50.673Z,98316.43
2018-12-19T11:40:19.185Z,98306.86
2018-12-19T11:42:47.845Z,98309.15
2018-12-19T11:45:16.434Z,98301.58
2018-12-19T11:48:01.006Z,98291.63
2018-12-19T11:50:29.586Z,98286.25
2018-12-19T11:52:58.142Z,98284.92
2018-12-19T11:55:26.675Z,98280.49
2018-12-19T11:57:55.196Z,98283.64
2018-12-19T12:00:23.829Z,98279.34
2018-12-19T12:02:52.304Z,98274.16
2018-12-19T12:05:20.799Z,98274.31
2018-12-19T12:07:49.274Z,98268.82
2018-12-19T12:10:17.864Z,98277.00
2018-12-19T12:12:46.931Z,98270.11
2018-12-19T12:15:15.387Z,98266.90
2018-12-19T12:17:43.898Z,98255.80
2018-12-19T12:20:12.367Z,98252.57
2018-12-19T12:22:41.251Z,98252.34
2018-12-19T12:25:09.934Z,98246.59
2018-12-19T12:27:38.486Z,98250.41
2018-12-19T12:30:07.406Z,98244.14
2018-12-19T12:32:36.177Z,98241.56
2018-12-19T12:35:05.637Z,98239.55
2018-12-19T12:37:34.230Z,98233.58
2018-12-19T12:40:02.745Z,98234.71
2018-12-19T12:42:31.214Z,98229.21
2018-12-19T12:45:00.063Z,98223.20
2018-12-19T12:47:28.888Z,98221.38
2018-12-19T12:49:57.588Z,98218.91
2018-12-19T12:52:27.612Z,98219.41
2018-12-19T12:54:56.170Z,98234.60
2018-12-19T12:57:24.678Z,98240.39
2018-12-19T12:59:53.124Z,98245.39
2018-12-19T13:02:21.616Z,98259.17
2018-12-19T13:04:50.087Z,98249.16
2018-12-19T13:07:18.724Z,98238.56
2018-12-19T13:09:47.302Z,98225.20
2018-12-19T13:12:17.194Z,98231.47
2018-12-19T13:14:45.879Z,98229.11
2018-12-19T13:17:14.434Z,98222.34
2018-12-19T13:19:42.908Z,98226.52
2018-12-19T13:22:12.390Z,98234.33
2018-12-19T13:24:41.082Z,98233.13
2018-12-19T13:27:09.585Z,98229.35
2018-12-19T13:29:38.141Z,98217.55
2018-12-19T13:32:07.100Z,98210.73
2018-12-19T13:34:35.558Z,98205.17
2018-12-19T13:37:04.081Z,98200.97
2018-12-19T13:39:32.583Z,98206.05
2018-12-19T13:42:05.579Z,98201.89
2018-12-19T13:44:31.562Z,98193.52
2018-12-19T13:47:00.056Z,98189.50
2018-12-19T13:49:28.601Z,98185.94
2018-12-19T13:51:57.058Z,98194.23
2018-12-19T13:54:25.515Z,98202.73
2018-12-19T13:56:54.084Z,98204.33
2018-12-19T13:59:22.541Z,98199.96
2018-12-19T14:01:51.104Z,98194.31
2018-12-19T14:04:19.789Z,98188.84
2018-12-19T14:06:48.861Z,98192.56
2018-12-19T14:09:17.492Z,98196.79
2018-12-19T14:11:45.962Z,98192.45
2018-12-19T14:14:14.444Z,98193.14
2018-12-19T14:16:43.579Z,98196.94
2018-12-19T14:19:12.081Z,98189.61
2018-12-19T14:21:40.673Z,98197.55
2018-12-19T14:24:09.158Z,98194.06
2018-12-19T14:26:37.686Z,98193.77
2018-12-19T14:29:06.158Z,98187.49
2018-12-19T14:31:34.800Z,98186.48
2018-12-19T14:34:03.313Z,98174.59
2018-12-19T14:36:31.900Z,98178.39
2018-12-19T14:39:00.995Z,98177.30
2018-12-19T14:41:29.502Z,98177.48
2018-12-19T14:43:58.026Z,98185.97
2018-12-19T14:46:26.575Z,98182.09
2018-12-19T14:48:55.025Z,98181.77
2018-12-19T14:51:23.640Z,98178.64
2018-12-19T14:53:52.114Z,98182.14
2018-12-19T14:56:21.260Z,98172.16
2018-12-19T14:58:49.750Z,98170.63
2018-12-19T15:01:18.214Z,98169.27
2018-12-19T15:03:46.718Z,98174.56
2018-12-19T15:06:15.238Z,98173.13
2018-12-19T15:08:45.144Z,98166.78
2018-12-19T15:11:13.727Z,98171.39
2018-12-19T15:13:42.256Z,98177.38
2018-12-19T15:16:12.231Z,98173.77
2018-12-19T15:18:41.315Z,98172.89
2018-12-19T15:21:10.044Z,98174.67
2018-12-19T15:23:38.752Z,98172.09
2018-12-19T15:26:07.241Z,98170.48
2018-12-19T15:28:35.821Z,98168.48
2018-12-19T15:31:04.317Z,98166.08
2018-12-19T15:33:34.194Z,98159.84
2018-12-19T15:36:03.055Z,98159.20
2018-12-19T15:38:31.556Z,98165.09
2018-12-19T15:41:00.030Z,98159.30
2018-12-19T15:43:28.595Z,98154.34
2018-12-19T15:45:57.924Z,98144.11
2018-12-19T15:48:26.514Z,98141.53
2018-12-19T15:50:54.981Z,98139.30
2018-12-19T15:53:23.491Z,98140.56
2018-12-19T15:55:52.285Z,98146.23
2018-12-19T15:58:20.878Z,98149.53
2018-12-19T16:00:49.364Z,98140.14
2018-12-19T16:03:17.905Z,98137.12
2018-12-19T16:05:46.406Z,98135.76
2018-12-19T16:08:14.914Z,98137.98
2018-12-19T16:10:43.370Z,98128.91
2018-12-19T16:13:11.851Z,98122.55
2018-12-19T16:15:40.322Z,98121.77
2018-12-19T16:18:08.854Z,98128.27
2018-12-19T16:20:37.336Z,98123.22
2018-12-19T16:23:05.953Z,98119.54
2018-12-19T16:25:34.499Z,98116.30
2018-12-19T16:28:02.985Z,98111.93
2018-12-19T16:30:31.476Z,98103.17
2018-12-19T16:32:59.967Z,98106.97
2018-12-19T16:35:28.481Z,98112.84
2018-12-19T16:37:57.126Z,98110.27
2018-12-19T16:40:27.662Z,98109.53
2018-12-19T16:42:58.823Z,98105.31
2018-12-19T16:45:28.487Z,98107.31
2018-12-19T16:47:57.754Z,98108.37
2018-12-19T16:50:26.343Z,98112.04
2018-12-19T16:52:54.826Z,98109.85
2018-12-19T16:55:23.287Z,98121.72
2018-12-19T16:57:51.862Z,98114.62
2018-12-19T17:00:20.488Z,98109.23
2018-12-19T17:02:49.055Z,98112.48
2018-12-19T17:05:17.638Z,98107.66
2018-12-19T17:07:46.180Z,98114.55
2018-12-19T17:10:14.724Z,98112.69
2018-12-19T17:12:43.221Z,98107.90
2018-12-19T17:15:11.683Z,98107.52
2018-12-19T17:17:40.228Z,98116.22
2018-12-19T17:20:08.770Z,98113.70
2018-12-19T17:22:37.251Z,98122.55
2018-12-19T17:25:06.027Z,98125.84
2018-12-19T17:27:35.396Z,98124.42
2018-12-19T17:30:04.445Z,98118.92
2018-12-19T17:32:33.134Z,98130.91
2018-12-19T17:35:01.638Z,98135.78
2018-12-19T17:37:30.296Z,98138.84
2018-12-19T17:40:03.114Z,98138.26
2018-12-19T17:42:34.311Z,98148.98
2018-12-19T17:45:03.638Z,98136.62
2018-12-19T17:47:33.297Z,98141.58
2018-12-19T17:50:02.402Z,98141.09
2018-12-19T17:52:31.142Z,98136.69
2018-12-19T17:54:59.666Z,98143.94
2018-12-19T17:57:28.178Z,98141.28
2018-12-19T17:59:56.659Z,98152.67
2018-12-19T18:02:25.245Z,98154.25
2018-12-19T18:04:53.822Z,98159.89
2018-12-19T18:07:24.593Z,98156.00
2018-12-19T18:09:53.124Z,98157.34
2018-12-19T18:12:21.673Z,98149.22
2018-12-19T18:14:50.135Z,98145.62
2018-12-19T18:17:18.698Z,98155.05
2018-12-19T18:19:47.194Z,98161.73
2018-12-19T18:22:16.714Z,98153.26
2018-12-19T18:24:45.283Z,98154.13
2018-12-19T18:27:13.820Z,98157.20
2018-12-19T18:29:42.347Z,98156.06
2018-12-19T18:32:10.865Z,98151.62
2018-12-19T18:34:39.346Z,98140.66
2018-12-19T18:37:07.903Z,98152.78
2018-12-19T18:39:36.409Z,98140.98
2018-12-19T18:42:05.073Z,98144.66
2018-12-19T18:44:34.413Z,98142.17
2018-12-19T18:47:02.933Z,98136.11
2018-12-19T18:49:31.435Z,98137.20
2018-12-19T18:51:59.923Z,98141.25
2018-12-19T18:54:28.376Z,98133.02
2018-12-19T18:56:56.986Z,98129.92
2018-12-19T18:59:25.464Z,98142.52
2018-12-19T19:01:54.081Z,98127.36
2018-12-19T19:04:22.679Z,98136.61
2018-12-19T19:06:51.272Z,98136.79
2018-12-19T19:09:19.957Z,98137.12
2018-12-19T19:11:49.231Z,98132.30
2018-12-19T19:14:17.777Z,98123.75
2018-12-19T19:16:46.307Z,98126.73
2018-12-19T19:19:15.001Z,98127.91
2018-12-19T19:21:43.654Z,98128.61
2018-12-19T19:24:12.114Z,98123.80
2018-12-19T19:26:40.607Z,98129.29
2018-12-19T19:29:09.068Z,98127.11
2018-12-19T19:31:37.606Z,98125.50
2018-12-19T19:34:06.620Z,98123.33
2018-12-19T19:36:35.386Z,98117.87
2018-12-19T19:39:05.874Z,98126.57
2018-12-19T19:41:34.587Z,98124.83
2018-12-19T19:44:04.092Z,98114.38
2018-12-19T19:46:32.620Z,98122.02
2018-12-19T19:49:01.394Z,98128.35
2018-12-19T19:51:30.581Z,98118.02
2018-12-19T19:53:59.075Z,98114.44
2018-12-19T19:56:27.595Z,98108.70
2018-12-19T19:58:56.278Z,98104.80
2018-12-19T20:01:24.901Z,98113.17
2018-12-19T20:03:53.434Z,98114.88
2018-12-19T20:06:21.980Z,98112.19
2018-12-19T20:08:50.907Z,98116.16
2018-12-19T20:11:19.551Z,98111.20
2018-12-19T20:13:48.074Z,98115.14
2018-12-19T20:16:18.533Z,98113.39
2018-12-19T20:18:47.518Z,98113.39
2018-12-19T20:21:16.706Z,98114.55
2018-12-19T20:23:45.591Z,98110.01
2018-12-19T20:26:15.806Z,98117.58
2018-12-19T20:28:50.973Z,98108.98
2018-12-19T20:31:19.562Z,98104.88
2018-12-19T20:33:48.059Z,98101.27
2018-12-19T20:36:17.253Z,98103.45
2018-12-19T20:38:46.962Z,98107.57
2018-12-19T20:41:15.968Z,98098.53
2018-12-19T20:43:44.471Z,98103.19
2018-12-19T20:46:12.966Z,98098.72
2018-12-19T20:48:41.439Z,98100.91
2018-12-19T20:51:10.673Z,98099.67
2018-12-19T20:53:39.163Z,98101.45
2018-12-19T20:56:07.955Z,98095.70
2018-12-19T20:58:36.519Z,98101.77
2018-12-19T21:01:05.192Z,98096.64
2018-12-19T21:03:33.749Z,98107.16
2018-12-19T21:06:02.261Z,98113.57
2018-12-19T21:08:30.931Z,98120.19
2018-12-19T21:10:59.473Z,98117.61
2018-12-19T21:13:27.953Z,98110.80
2018-12-19T21:15:56.582Z,98116.25
2018-12-19T21:18:30.122Z,98109.34
2018-12-19T21:20:58.651Z,98117.56
2018-12-19T21:23:27.122Z,98121.34
2018-12-19T21:25:55.613Z,98124.55
2018-12-19T21:28:24.237Z,98122.95
2018-12-19T21:30:53.416Z,98124.08
2018-12-19T21:33:21.892Z,98123.53
2018-12-19T21:35:50.529Z,98126.75
2018-12-19T21:38:19.145Z,98124.75
2018-12-19T21:40:48.223Z,98121.34
2018-12-19T21:43:16.753Z,98118.75
2018-12-19T21:45:51.569Z,98112.77
2018-12-19T21:48:15.853Z,98108.15
2018-12-19T21:50:44.561Z,98120.36
2018-12-19T21:53:13.145Z,98116.91
2018-12-19T21:55:41.659Z,98123.91
2018-12-19T21:58:10.344Z,98119.09
2018-12-19T22:00:41.413Z,98122.44
2018-12-19T22:03:10.299Z,98118.75
2018-12-19T22:05:41.352Z,98118.27
2018-12-19T22:08:10.002Z,98115.38
2018-12-19T22:10:42.569Z,98111.67
2018-12-19T22:13:11.902Z,98105.13
2018-12-19T22:15:44.124Z,98111.78
2018-12-19T22:18:18.686Z,98107.74
2018-12-19T22:20:49.480Z,98111.77
2018-12-19T22:23:21.056Z,98096.34
2018-12-19T22:25:51.106Z,98096.77
2018-12-19T22:28:19.888Z,98095.73
2018-12-19T22:30:48.527Z,98098.97
2018-12-19T22:33:18.643Z,98097.89
2018-12-19T22:35:48.805Z,98095.27
2018-12-19T22:38:19.306Z,98092.93
2018-12-19T22:40:50.405Z,98088.30
2018-12-19T22:43:21.161Z,98089.40
2018-12-19T22:45:50.113Z,98083.83
2018-12-19T22:48:18.684Z,98082.73
2018-12-19T22:50:47.200Z,98080.48
2018-12-19T22:53:15.689Z,98072.72
2018-12-19T22:55:44.416Z,98075.83
2018-12-19T22:58:13.119Z,98075.31
2018-12-19T23:00:47.618Z,98073.64
2018-12-19T23:03:16.509Z,98069.34
2018-12-19T23:05:51.245Z,98063.34
2018-12-19T23:08:21.421Z,98052.02
2018-12-19T23:10:51.376Z,98062.34
2018-12-19T23:13:21.497Z,98067.34
2018-12-19T23:15:51.390Z,98065.63
2018-12-19T23:18:26.224Z,98062.86
2018-12-19T23:20:55.508Z,98072.63
2018-12-19T23:23:24.372Z,98068.94
2018-12-19T23:25:53.286Z,98061.61
2018-12-19T23:28:22.126Z,98070.55
2018-12-19T23:30:51.322Z,98064.06
2018-12-19T23:33:19.941Z,98067.88
2018-12-19T23:35:51.919Z,98063.70
2018-12-19T23:38:20.609Z,98067.08
2018-12-19T23:40:49.587Z,98064.64
2018-12-19T23:43:18.052Z,98052.85
2018-12-19T23:45:46.622Z,98055.61
2018-12-19T23:48:15.197Z,98055.02
2018-12-19T23:50:43.917Z,98053.77
2018-12-19T23:53:12.579Z,98054.12
2018-12-19T23:55:41.129Z,98053.76
2018-12-19T23:58:10.011Z,98057.80
